Time;durP1;ratioP1;P1;durP2;ratioP2;P2;SDS_P1;SDS_P2;PMS_P1;PMS_P2;Temp;Humidity;BMP_temperature;BMP_pressure;BME280_temperature;BME280_humidity;BME280_pressure;Samples;Min_cycle;Max_cycle;Signal;HPM_P1;HPM_P2
2023/12/11 00:01:33;;;;;;;;;;;;;;;10.55;80.09;99003.59;7367588;19;22127;-61
2023/12/11 00:03:58;;;;;;;;;;;;;;;10.49;80.33;99009.13;7361458;19;19922;-61
2023/12/11 00:06:23;;;;;;;;;;;;;;;10.45;79.86;99004.97;7362545;19;19922;-61
2023/12/11 00:08:48;;;;;;;;;;;;;;;10.41;79.82;99011.28;7358473;19;19922;-61
2023/12/11 00:11:14;;;;;;;;;;;;;;;10.37;79.77;99025.38;7359986;19;19950;-61
2023/12/11 00:13:39;;;;;;;;;;;;;;;10.32;79.93;99012.56;7357807;19;19929;-62
2023/12/11 00:16:04;;;;;;;;;;;;;;;10.28;80.03;99010.16;7360016;19;19950;-62
2023/12/11 00:18:30;;;;;;;;;;;;;;;10.23;79.62;99018.19;7362248;19;19917;-61
2023/12/11 00:20:55;;;;;;;;;;;;;;;10.20;79.79;99017.50;7356565;19;19968;-61
2023/12/11 00:23:20;;;;;;;;;;;;;;;10.14;79.89;99019.47;7359427;19;19924;-61
2023/12/11 00:25:46;;;;;;;;;;;;;;;10.10;79.99;99023.16;7355881;19;20356;-61
2023/12/11 00:28:12;;;;;;;;;;;;;;;10.07;79.77;99014.63;7364255;19;20021;-61
2023/12/11 00:30:37;;;;;;;;;;;;;;;10.04;79.99;99020.84;7355382;19;20030;-61
2023/12/11 00:33:02;;;;;;;;;;;;;;;10.01;79.83;99025.34;7363424;19;20387;-61
2023/12/11 00:35:27;;;;;;;;;;;;;;;9.97;79.90;99026.41;7355296;19;19974;-62
2023/12/11 00:37:53;;;;;;;;;;;;;;;9.93;80.18;99025.69;7361857;19;19914;-62
2023/12/11 00:40:18;;;;;;;;;;;;;;;9.91;79.91;99022.31;7360342;19;19978;-61
2023/12/11 00:42:43;;;;;;;;;;;;;;;9.88;79.87;99017.25;7364234;19;19942;-61
2023/12/11 00:45:11;;;;;;;;;;;;;;;9.85;80.33;99012.19;7355242;19;19915;-61
2023/12/11 00:47:36;;;;;;;;;;;;;;;9.84;80.09;99028.75;7355525;19;19923;-62
2023/12/11 00:50:02;;;;;;;;;;;;;;;9.81;79.98;99037.53;7368486;19;19959;-61
2023/12/11 00:52:27;;;;;;;;;;;;;;;9.80;80.24;99032.41;7370255;19;20355;-61
2023/12/11 00:54:52;;;;;;;;;;;;;;;9.77;80.55;99045.56;7348180;19;19914;-61
2023/12/11 00:57:17;;;;;;;;;;;;;;;9.76;80.21;99033.47;7369909;19;19961;-61
2023/12/11 00:59:43;;;;;;;;;;;;;;;9.75;80.72;99042.22;7363664;19;20307;-61
2023/12/11 01:02:08;;;;;;;;;;;;;;;9.75;80.40;99043.06;7371246;19;19922;-62
2023/12/11 01:04:33;;;;;;;;;;;;;;;9.75;80.60;99057.84;7366622;19;19970;-61
2023/12/11 01:06:59;;;;;;;;;;;;;;;9.74;80.66;99066.59;7364350;19;20442;-61
2023/12/11 01:09:24;;;;;;;;;;;;;;;9.73;80.47;99070.09;7363854;19;19910;-61
2023/12/11 01:11:49;;;;;;;;;;;;;;;9.73;80.52;99070.09;7368709;19;19922;-61
2023/12/11 01:14:14;;;;;;;;;;;;;;;9.72;80.66;99078.81;7369871;19;20376;-61
2023/12/11 01:16:40;;;;;;;;;;;;;;;9.74;80.83;99079.63;7365464;19;19927;-61
2023/12/11 01:19:05;;;;;;;;;;;;;;;9.74;81.31;99080.47;7365933;19;19939;-61
2023/12/11 01:21:30;;;;;;;;;;;;;;;9.76;81.33;99081.22;7369257;19;19915;-62
2023/12/11 01:23:55;;;;;;;;;;;;;;;9.76;81.04;99080.38;7366972;19;19945;-61
2023/12/11 01:26:21;;;;;;;;;;;;;;;9.77;80.75;99087.28;7366064;19;19919;-61
2023/12/11 01:28:46;;;;;;;;;;;;;;;9.77;80.66;99090.72;7367657;19;19922;-61
2023/12/11 01:31:11;;;;;;;;;;;;;;;9.77;80.80;99098.56;7365583;19;19945;-62
2023/12/11 01:33:36;;;;;;;;;;;;;;;9.76;80.56;99090.81;7359358;19;19931;-61
2023/12/11 01:36:02;;;;;;;;;;;;;;;9.76;80.97;99096.03;7368217;19;19919;-62
2023/12/11 01:38:27;;;;;;;;;;;;;;;9.75;80.51;99099.56;7368268;19;20339;-61
2023/12/11 01:40:52;;;;;;;;;;;;;;;9.74;80.76;99105.69;7369208;19;19918;-62
2023/12/11 01:43:18;;;;;;;;;;;;;;;9.74;80.54;99113.50;7360916;19;20929;-61
2023/12/11 01:45:45;;;;;;;;;;;;;;;9.73;81.02;99110.06;7367677;19;19927;-62
2023/12/11 01:48:11;;;;;;;;;;;;;;;9.74;81.04;99121.31;7368054;19;20290;-61
2023/12/11 01:50:36;;;;;;;;;;;;;;;9.75;81.27;99123.00;7360937;19;19933;-61
2023/12/11 01:53:03;;;;;;;;;;;;;;;9.75;81.20;99136.88;7367889;19;19956;-61
2023/12/11 01:55:30;;;;;;;;;;;;;;;9.76;80.90;99132.53;7365056;19;20350;-61
2023/12/11 01:57:56;;;;;;;;;;;;;;;9.77;81.11;99137.66;7365685;19;19930;-62
2023/12/11 02:00:21;;;;;;;;;;;;;;;9.79;80.97;99145.44;7366278;19;19910;-61
2023/12/11 02:02:46;;;;;;;;;;;;;;;9.82;81.11;99153.09;7368994;19;19946;-61
2023/12/11 02:05:11;;;;;;;;;;;;;;;9.84;81.44;99161.72;7367878;19;19931;-61
2023/12/11 02:07:40;;;;;;;;;;;;;;;9.87;81.53;99166.78;7362818;19;19927;-61
2023/12/11 02:10:06;;;;;;;;;;;;;;;9.89;81.96;99175.41;7359896;19;20370;-61
2023/12/11 02:12:31;;;;;;;;;;;;;;;9.94;82.02;99183.84;7366985;19;19919;-61
2023/12/11 02:14:56;;;;;;;;;;;;;;;9.98;82.07;99192.38;7364092;19;19926;-61
2023/12/11 02:17:22;;;;;;;;;;;;;;;10.01;82.30;99195.69;7373433;19;20355;-61
2023/12/11 02:19:47;;;;;;;;;;;;;;;10.04;81.82;99198.19;7362280;19;20349;-61
2023/12/11 02:22:12;;;;;;;;;;;;;;;10.06;82.21;99196.34;7365858;19;19921;-61
2023/12/11 02:24:49;;;;;;;;;;;;;;;10.10;81.80;99202.28;7367477;19;20303;-61
2023/12/11 02:27:15;;;;;;;;;;;;;;;10.12;82.01;99216.94;7365453;19;19964;-61
2023/12/11 02:29:40;;;;;;;;;;;;;;;10.15;82.21;99208.13;7364230;19;20304;-61
2023/12/11 02:32:06;;;;;;;;;;;;;;;10.19;81.92;99209.69;7363110;19;19933;-61
2023/12/11 02:34:31;;;;;;;;;;;;;;;10.21;81.98;99212.22;7365895;19;19919;-61
2023/12/11 02:36:56;;;;;;;;;;;;;;;10.23;81.82;99218.22;7364256;19;19923;-61
2023/12/11 02:39:21;;;;;;;;;;;;;;;10.24;81.75;99212.09;7361809;19;19923;-61
2023/12/11 02:41:47;;;;;;;;;;;;;;;10.25;81.96;99219.88;7364546;19;19918;-61
2023/12/11 02:44:12;;;;;;;;;;;;;;;10.26;82.07;99241.59;7363963;19;19934;-61
2023/12/11 02:46:38;;;;;;;;;;;;;;;10.26;81.78;99236.38;7362512;19;19910;-61
2023/12/11 02:49:03;;;;;;;;;;;;;;;10.26;81.42;99242.44;7366719;19;20889;-61
2023/12/11 02:51:29;;;;;;;;;;;;;;;10.27;81.75;99238.06;7363761;19;19982;-61
2023/12/11 02:53:54;;;;;;;;;;;;;;;10.28;81.58;99247.56;7367274;19;19950;-61
2023/12/11 02:56:19;;;;;;;;;;;;;;;10.27;81.46;99245.88;7365579;19;19954;-61
2023/12/11 02:58:44;;;;;;;;;;;;;;;10.28;81.60;99255.41;7359767;19;19923;-61
2023/12/11 03:01:10;;;;;;;;;;;;;;;10.29;81.56;99267.53;7360784;19;19934;-61
2023/12/11 03:03:35;;;;;;;;;;;;;;;10.28;81.65;99266.69;7361866;19;19922;-62
2023/12/11 03:06:03;;;;;;;;;;;;;;;10.30;81.73;99269.25;7364627;19;19918;-61
2023/12/11 03:08:28;;;;;;;;;;;;;;;10.31;81.84;99281.38;7363063;19;19926;-62
2023/12/11 03:10:53;;;;;;;;;;;;;;;10.33;81.85;99289.97;7361545;19;19911;-62
2023/12/11 03:13:19;;;;;;;;;;;;;;;10.33;81.91;99289.97;7362178;19;19922;-61
2023/12/11 03:15:44;;;;;;;;;;;;;;;10.35;81.46;99290.75;7365502;19;19944;-61
2023/12/11 03:18:10;;;;;;;;;;;;;;;10.37;81.72;99296.75;7357791;19;19938;-61
2023/12/11 03:20:35;;;;;;;;;;;;;;;10.36;81.67;99300.28;7361697;19;20670;-61
2023/12/11 03:23:00;;;;;;;;;;;;;;;10.36;81.30;99308.09;7365226;19;19982;-61
2023/12/11 03:25:25;;;;;;;;;;;;;;;10.30;81.69;99306.63;7358306;19;19914;-61
2023/12/11 03:27:51;;;;;;;;;;;;;;;10.36;81.30;99315.94;7366808;19;19922;-62
2023/12/11 03:30:16;;;;;;;;;;;;;;;10.36;81.26;99321.16;7369892;19;19921;-62
2023/12/11 03:32:41;;;;;;;;;;;;;;;10.37;81.46;99330.66;7361486;19;19918;-61
2023/12/11 03:35:07;;;;;;;;;;;;;;;10.37;81.58;99333.28;7362847;19;19923;-62
2023/12/11 03:37:32;;;;;;;;;;;;;;;10.37;81.70;99333.28;7363202;19;19931;-61
2023/12/11 03:39:57;;;;;;;;;;;;;;;10.38;81.38;99345.41;7364670;19;19919;-63
2023/12/11 03:42:23;;;;;;;;;;;;;;;10.37;81.75;99344.56;7362383;19;20534;-61
2023/12/11 03:44:48;;;;;;;;;;;;;;;10.36;81.36;99332.44;7365557;19;20457;-61
2023/12/11 03:47:13;;;;;;;;;;;;;;;10.34;81.28;99339.50;7364180;19;20346;-61
2023/12/11 03:49:38;;;;;;;;;;;;;;;10.33;81.30;99337.78;7368295;19;20257;-61
2023/12/11 03:52:04;;;;;;;;;;;;;;;10.31;80.85;99346.59;7365341;19;19918;-61
2023/12/11 03:54:29;;;;;;;;;;;;;;;10.28;81.05;99341.50;7362902;19;19978;-61
2023/12/11 03:56:54;;;;;;;;;;;;;;;10.24;80.85;99356.47;7364684;19;19923;-62
2023/12/11 03:59:20;;;;;;;;;;;;;;;10.20;80.45;99357.47;7362927;19;19941;-61
2023/12/11 04:01:45;;;;;;;;;;;;;;;10.17;80.43;99364.56;7359205;19;19926;-61
2023/12/11 04:04:10;;;;;;;;;;;;;;;10.12;80.59;99359.53;7361934;19;19938;-61
2023/12/11 04:06:35;;;;;;;;;;;;;;;10.08;80.77;99358.81;7351968;19;20583;-62
2023/12/11 04:09:01;;;;;;;;;;;;;;;10.05;80.79;99371.16;7364360;19;19933;-61
2023/12/11 04:11:26;;;;;;;;;;;;;;;10.03;80.51;99371.19;7359814;19;19986;-61
2023/12/11 04:13:51;;;;;;;;;;;;;;;10.00;80.60;99376.56;7363638;19;20026;-61
2023/12/11 04:16:16;;;;;;;;;;;;;;;9.99;80.64;99379.25;7368959;19;19936;-61
2023/12/11 04:18:42;;;;;;;;;;;;;;;9.97;80.73;99384.50;7333467;19;19962;-61
2023/12/11 04:21:08;;;;;;;;;;;;;;;9.97;80.90;99387.09;7355465;19;19922;-61
2023/12/11 04:23:33;;;;;;;;;;;;;;;9.97;80.89;99397.53;7368185;19;20618;-61
2023/12/11 04:25:59;;;;;;;;;;;;;;;9.97;81.31;99391.47;7361148;19;19923;-61
2023/12/11 04:28:24;;;;;;;;;;;;;;;9.98;81.61;99409.66;7366966;19;19910;-62
2023/12/11 04:30:50;;;;;;;;;;;;;;;9.99;81.59;99405.31;7360405;19;20276;-63
2023/12/11 04:33:15;;;;;;;;;;;;;;;9.99;81.52;99411.38;7368184;19;20640;-61
2023/12/11 04:35:40;;;;;;;;;;;;;;;10.00;81.37;99407.84;7369878;19;19922;-61
2023/12/11 04:38:05;;;;;;;;;;;;;;;10.01;81.57;99409.56;7368852;19;19921;-61
2023/12/11 04:40:31;;;;;;;;;;;;;;;10.03;81.24;99423.34;7372066;19;19914;-62
2023/12/11 04:42:56;;;;;;;;;;;;;;;10.03;81.48;99428.56;7367298;19;20483;-61
2023/12/11 04:45:21;;;;;;;;;;;;;;;10.04;81.34;99434.66;7368839;19;19934;-62
2023/12/11 04:47:46;;;;;;;;;;;;;;;10.04;81.30;99425.09;7365719;19;19926;-62
2023/12/11 04:50:12;;;;;;;;;;;;;;;10.04;81.53;99432.91;7368936;19;19915;-61
2023/12/11 04:52:37;;;;;;;;;;;;;;;10.05;81.19;99433.75;7363615;19;19914;-61
2023/12/11 04:55:02;;;;;;;;;;;;;;;10.04;81.40;99440.72;7366525;19;20394;-61
2023/12/11 04:57:28;;;;;;;;;;;;;;;10.03;80.98;99443.38;7365634;19;19928;-61
2023/12/11 04:59:53;;;;;;;;;;;;;;;10.01;80.79;99440.00;7364635;19;20323;-61
2023/12/11 05:02:18;;;;;;;;;;;;;;;9.98;81.00;99440.94;7365910;19;19918;-61
2023/12/11 05:04:43;;;;;;;;;;;;;;;9.95;80.72;99451.53;7368947;19;19946;-61
2023/12/11 05:07:09;;;;;;;;;;;;;;;9.93;80.68;99460.31;7358310;19;19946;-61
2023/12/11 05:09:34;;;;;;;;;;;;;;;9.88;80.72;99450.94;7367231;19;19918;-61
2023/12/11 05:11:59;;;;;;;;;;;;;;;9.85;80.30;99450.19;7368105;19;20813;-61
2023/12/11 05:14:25;;;;;;;;;;;;;;;9.80;80.18;99452.13;7368879;19;19945;-61
2023/12/11 05:16:50;;;;;;;;;;;;;;;9.77;80.40;99455.69;7368002;19;19921;-61
2023/12/11 05:19:15;;;;;;;;;;;;;;;9.74;79.97;99468.03;7364787;19;19927;-61
2023/12/11 05:21:44;;;;;;;;;;;;;;;9.70;80.08;99461.22;7367296;19;20254;-61
2023/12/11 05:24:09;;;;;;;;;;;;;;;9.66;80.45;99457.88;7366892;19;20033;-61
2023/12/11 05:26:34;;;;;;;;;;;;;;;9.62;80.65;99464.97;7366119;19;20005;-62
2023/12/11 05:29:00;;;;;;;;;;;;;;;9.60;80.35;99477.22;7367901;19;19921;-61
2023/12/11 05:31:25;;;;;;;;;;;;;;;9.60;80.45;99466.78;7370198;19;20362;-61
2023/12/11 05:33:51;;;;;;;;;;;;;;;9.58;80.58;99465.16;7375915;19;20618;-61
2023/12/11 05:36:16;;;;;;;;;;;;;;;9.58;80.80;99458.19;7367856;19;19925;-62
2023/12/11 05:38:41;;;;;;;;;;;;;;;9.58;80.61;99465.16;7368965;19;19919;-61
2023/12/11 05:41:06;;;;;;;;;;;;;;;9.56;80.69;99470.41;7367012;19;19925;-61
2023/12/11 05:43:32;;;;;;;;;;;;;;;9.55;80.55;99468.72;7362623;19;19942;-61
2023/12/11 05:45:57;;;;;;;;;;;;;;;9.53;80.76;99472.28;7366909;19;19926;-61
2023/12/11 05:48:22;;;;;;;;;;;;;;;9.51;80.83;99466.28;7367479;19;19990;-61
2023/12/11 05:50:47;;;;;;;;;;;;;;;9.49;80.62;99479.38;7364481;19;19926;-61
2023/12/11 05:53:13;;;;;;;;;;;;;;;9.48;80.56;99472.47;7364708;19;19915;-61
2023/12/11 05:55:38;;;;;;;;;;;;;;;9.47;80.82;99475.13;7364161;19;19922;-61
2023/12/11 05:58:03;;;;;;;;;;;;;;;9.45;80.72;99483.00;7364650;19;19923;-61
2023/12/11 06:00:28;;;;;;;;;;;;;;;9.43;80.71;99489.16;7366049;19;19926;-61
2023/12/11 06:02:54;;;;;;;;;;;;;;;9.41;80.31;99485.78;7366574;19;20729;-61
2023/12/11 06:05:19;;;;;;;;;;;;;;;9.37;80.17;99490.25;7364182;19;19919;-61
2023/12/11 06:07:45;;;;;;;;;;;;;;;9.35;80.52;99497.28;7366735;19;19926;-62
2023/12/11 06:10:10;;;;;;;;;;;;;;;9.32;80.15;99500.00;7366002;19;19923;-62
2023/12/11 06:12:35;;;;;;;;;;;;;;;9.29;80.06;99508.78;7368559;19;19915;-61
2023/12/11 06:15:00;;;;;;;;;;;;;;;9.27;80.33;99521.00;7363090;19;19923;-61
2023/12/11 06:17:26;;;;;;;;;;;;;;;9.24;80.31;99515.91;7364659;19;19919;-61
2023/12/11 06:19:51;;;;;;;;;;;;;;;9.23;79.95;99518.59;7364663;19;19918;-61
2023/12/11 06:22:16;;;;;;;;;;;;;;;9.20;80.18;99518.69;7363740;19;20384;-61
2023/12/11 06:24:41;;;;;;;;;;;;;;;9.18;79.65;99525.72;7366238;19;19923;-61
2023/12/11 06:27:07;;;;;;;;;;;;;;;9.13;79.88;99522.44;7370321;19;19982;-61
2023/12/11 06:29:32;;;;;;;;;;;;;;;9.09;79.66;99532.09;7362285;19;20619;-61
2023/12/11 06:31:58;;;;;;;;;;;;;;;9.07;79.86;99533.88;7366245;19;19930;-61
2023/12/11 06:34:23;;;;;;;;;;;;;;;9.03;79.42;99527.97;7363645;19;20254;-61
2023/12/11 06:36:48;;;;;;;;;;;;;;;8.88;79.57;99512.88;7366657;19;20354;-61
2023/12/11 06:39:13;;;;;;;;;;;;;;;8.96;79.62;99536.88;7370906;19;19974;-61
2023/12/11 06:41:39;;;;;;;;;;;;;;;8.93;79.68;99539.59;7366108;19;19925;-61
2023/12/11 06:44:04;;;;;;;;;;;;;;;8.90;79.32;99539.69;7361246;19;19946;-61
2023/12/11 06:46:29;;;;;;;;;;;;;;;8.87;79.31;99537.22;7363225;19;19922;-61
2023/12/11 06:48:56;;;;;;;;;;;;;;;8.83;79.45;99546.88;7361546;19;19948;-61
2023/12/11 06:51:21;;;;;;;;;;;;;;;8.80;79.59;99556.53;7363303;19;20273;-61
2023/12/11 06:53:46;;;;;;;;;;;;;;;8.78;79.23;99568.75;7367937;19;19922;-61
2023/12/11 06:56:21;;;;;;;;;;;;;;;8.76;79.19;99570.53;7365892;19;20323;-62
2023/12/11 06:58:46;;;;;;;;;;;;;;;8.73;79.65;99576.72;7361271;19;19923;-61
2023/12/11 07:01:12;;;;;;;;;;;;;;;8.71;79.42;99577.66;7365236;19;19949;-61
2023/12/11 07:03:39;;;;;;;;;;;;;;;8.68;79.59;99577.75;7364725;19;19922;-61
2023/12/11 07:06:04;;;;;;;;;;;;;;;8.67;79.62;99576.03;7363854;19;19946;-61
2023/12/11 07:08:30;;;;;;;;;;;;;;;8.64;79.43;99579.59;7364673;19;19918;-61
2023/12/11 07:10:56;;;;;;;;;;;;;;;8.63;79.88;99580.50;7362215;19;20287;-61
2023/12/11 07:13:21;;;;;;;;;;;;;;;8.60;79.58;99585.81;7364370;19;19915;-61
2023/12/11 07:15:46;;;;;;;;;;;;;;;8.60;79.42;99592.78;7361102;19;19926;-62
2023/12/11 07:18:13;;;;;;;;;;;;;;;8.56;79.74;99590.25;7364023;19;19914;-61
2023/12/11 07:20:39;;;;;;;;;;;;;;;8.54;79.49;99594.66;7358077;19;19922;-61
2023/12/11 07:23:05;;;;;;;;;;;;;;;8.53;79.75;99592.13;7361472;19;20339;-61
2023/12/11 07:25:31;;;;;;;;;;;;;;;8.49;79.24;99601.78;7360122;19;19922;-61
2023/12/11 07:27:56;;;;;;;;;;;;;;;8.47;79.21;99595.78;7364605;19;19994;-61
2023/12/11 07:30:22;;;;;;;;;;;;;;;8.46;79.21;99593.19;7362167;19;19918;-61
2023/12/11 07:32:47;;;;;;;;;;;;;;;8.43;79.34;99590.72;7362876;19;19915;-61
2023/12/11 07:35:12;;;;;;;;;;;;;;;8.41;79.59;99601.16;7363265;19;19956;-61
2023/12/11 07:37:43;;;;;;;;;;;;;;;8.39;79.43;99607.31;7362735;19;19923;-61
2023/12/11 07:40:09;;;;;;;;;;;;;;;8.37;79.22;99612.56;7360326;19;19919;-61
2023/12/11 07:42:35;;;;;;;;;;;;;;;8.34;79.44;99615.22;7367063;19;19930;-62
2023/12/11 07:45:00;;;;;;;;;;;;;;;8.34;79.41;99615.22;7371573;19;20234;-61
2023/12/11 07:47:25;;;;;;;;;;;;;;;8.31;79.54;99630.91;7362151;19;19915;-61
2023/12/11 07:49:51;;;;;;;;;;;;;;;8.31;79.34;99625.72;7358969;19;20645;-61
2023/12/11 07:52:16;;;;;;;;;;;;;;;8.28;79.56;99623.22;7356394;19;19918;-61
2023/12/11 07:54:41;;;;;;;;;;;;;;;8.27;79.35;99621.53;7362798;19;19918;-61
2023/12/11 07:57:06;;;;;;;;;;;;;;;8.25;79.30;99620.69;7360628;19;19974;-61
2023/12/11 07:59:32;;;;;;;;;;;;;;;8.24;79.81;99626.81;7361186;19;19931;-61
2023/12/11 08:01:57;;;;;;;;;;;;;;;8.22;79.68;99626.00;7360587;19;20704;-61
2023/12/11 08:04:22;;;;;;;;;;;;;;;8.21;79.53;99630.38;7358112;19;19918;-61
2023/12/11 08:06:47;;;;;;;;;;;;;;;8.18;79.48;99638.25;7369969;19;19923;-60
2023/12/11 08:09:14;;;;;;;;;;;;;;;8.18;79.38;99637.41;7367895;19;19922;-61
2023/12/11 08:11:40;;;;;;;;;;;;;;;8.15;79.37;99646.13;7366063;19;19954;-61
2023/12/11 08:14:05;;;;;;;;;;;;;;;8.15;79.55;99650.47;7370738;19;19915;-61
2023/12/11 08:16:31;;;;;;;;;;;;;;;8.12;79.59;99655.78;7365689;19;20384;-61
2023/12/11 08:18:57;;;;;;;;;;;;;;;8.10;79.59;99657.56;7365698;19;19923;-61
2023/12/11 08:21:23;;;;;;;;;;;;;;;8.10;79.32;99652.38;7368035;19;19927;-62
2023/12/11 08:23:48;;;;;;;;;;;;;;;8.06;79.30;99660.28;7367939;19;19922;-61
2023/12/11 08:26:18;;;;;;;;;;;;;;;8.05;79.47;99663.75;7368990;19;19923;-61
2023/12/11 08:28:43;;;;;;;;;;;;;;;8.03;79.61;99668.16;7371754;19;19997;-61
2023/12/11 08:31:08;;;;;;;;;;;;;;;8.02;79.52;99665.59;7361786;19;19998;-61
2023/12/11 08:33:34;;;;;;;;;;;;;;;8.00;79.66;99663.03;7371090;19;19927;-61
2023/12/11 08:35:59;;;;;;;;;;;;;;;7.98;79.26;99680.44;7364940;19;20359;-61
2023/12/11 08:38:24;;;;;;;;;;;;;;;7.97;79.66;99678.72;7370119;19;19929;-61
2023/12/11 08:40:50;;;;;;;;;;;;;;;7.95;79.61;99670.09;7366568;19;19911;-61
2023/12/11 08:43:16;;;;;;;;;;;;;;;7.95;79.50;99674.47;7371197;19;19928;-61
2023/12/11 08:45:42;;;;;;;;;;;;;;;7.92;79.16;99674.56;7365798;19;19926;-61
2023/12/11 08:48:07;;;;;;;;;;;;;;;7.91;79.29;99678.91;7369093;19;20713;-61
2023/12/11 08:50:32;;;;;;;;;;;;;;;7.90;79.53;99674.59;7360904;19;20335;-61
2023/12/11 08:53:00;;;;;;;;;;;;;;;7.90;79.48;99684.97;7367333;19;19914;-61
2023/12/11 08:55:25;;;;;;;;;;;;;;;7.88;79.48;99684.19;7365465;19;19922;-61
2023/12/11 08:57:50;;;;;;;;;;;;;;;7.88;79.66;99683.34;7364995;19;19946;-61
2023/12/11 09:00:16;;;;;;;;;;;;;;;7.86;79.35;99683.38;7368399;19;20349;-61
2023/12/11 09:02:41;;;;;;;;;;;;;;;7.87;79.68;99686.84;7368725;19;19922;-61
2023/12/11 09:05:07;;;;;;;;;;;;;;;7.86;79.61;99695.53;7342384;19;19953;-61
2023/12/11 09:07:33;;;;;;;;;;;;;;;7.86;79.96;99696.38;7367023;19;19915;-61
2023/12/11 09:09:58;;;;;;;;;;;;;;;7.86;79.70;99690.34;7358365;19;20747;-61
2023/12/11 09:12:23;;;;;;;;;;;;;;;7.86;80.00;99696.38;7365031;19;19914;-60
2023/12/11 09:14:49;;;;;;;;;;;;;;;7.87;79.67;99697.22;7367517;19;19945;-61
2023/12/11 09:17:14;;;;;;;;;;;;;;;7.88;79.88;99693.72;7368004;19;20002;-61
2023/12/11 09:19:39;;;;;;;;;;;;;;;7.87;79.95;99692.88;7368209;19;19926;-61
2023/12/11 09:22:05;;;;;;;;;;;;;;;7.88;79.88;99712.78;7367299;19;19922;-61
2023/12/11 09:24:30;;;;;;;;;;;;;;;7.88;79.94;99707.56;7363801;19;19914;-61
2023/12/11 09:26:55;;;;;;;;;;;;;;;7.88;80.31;99719.72;7365070;19;19921;-61
2023/12/11 09:29:21;;;;;;;;;;;;;;;7.88;79.91;99720.56;7362404;19;20351;-61
2023/12/11 09:31:46;;;;;;;;;;;;;;;7.89;80.06;99719.66;7366113;19;19927;-61
2023/12/11 09:34:12;;;;;;;;;;;;;;;7.90;80.17;99721.38;7366779;19;19945;-62
2023/12/11 09:36:37;;;;;;;;;;;;;;;7.90;80.21;99723.97;7365140;19;19918;-61
2023/12/11 09:39:04;;;;;;;;;;;;;;;7.91;80.04;99730.91;7369216;19;19927;-61
2023/12/11 09:41:31;;;;;;;;;;;;;;;7.91;80.14;99733.50;7364831;19;20065;-61
2023/12/11 09:43:57;;;;;;;;;;;;;;;7.92;80.21;99743.00;7366382;19;20348;-61
2023/12/11 09:46:23;;;;;;;;;;;;;;;7.93;80.48;99755.09;7363861;19;19926;-61
2023/12/11 09:48:49;;;;;;;;;;;;;;;7.95;80.33;99742.03;7362598;19;19923;-61
2023/12/11 09:51:16;;;;;;;;;;;;;;;7.97;80.32;99745.47;7372052;19;20014;-63
2023/12/11 09:53:41;;;;;;;;;;;;;;;7.99;80.64;99747.13;7361639;19;19941;-62
2023/12/11 09:56:07;;;;;;;;;;;;;;;8.03;81.01;99755.69;7365293;19;20732;-61
2023/12/11 09:58:32;;;;;;;;;;;;;;;8.05;81.07;99770.34;7354184;19;19925;-61
2023/12/11 10:01:00;;;;;;;;;;;;;;;8.11;81.31;99763.28;7367328;19;19921;-61
2023/12/11 10:03:29;;;;;;;;;;;;;;;8.17;81.68;99760.53;7350818;19;19922;-60
2023/12/11 10:06:00;;;;;;;;;;;;;;;8.28;82.03;99763.66;7362676;19;19934;-62
2023/12/11 10:08:26;;;;;;;;;;;;;;;8.40;82.26;99765.94;7364040;19;19918;-61
2023/12/11 10:11:11;;;;;;;;;;;;;;;8.57;82.65;99774.13;7363953;19;19933;-61
2023/12/11 10:13:37;;;;;;;;;;;;;;;8.74;83.29;99770.16;7361281;19;19914;-62
2023/12/11 10:16:02;;;;;;;;;;;;;;;9.02;83.60;99776.25;7364448;19;19963;-61
2023/12/11 10:18:28;;;;;;;;;;;;;;;9.24;84.10;99770.34;7365237;19;19919;-61
2023/12/11 10:20:54;;;;;;;;;;;;;;;9.44;83.97;99770.56;7363764;19;19982;-61
2023/12/11 10:23:23;;;;;;;;;;;;;;;9.67;84.48;99768.91;7367909;19;19918;-61
2023/12/11 10:25:53;;;;;;;;;;;;;;;9.89;84.27;99769.91;7362936;19;19915;-61
2023/12/11 10:28:20;;;;;;;;;;;;;;;10.11;84.37;99765.63;7367747;19;19997;-61
2023/12/11 10:30:49;;;;;;;;;;;;;;;10.31;83.93;99766.69;7369199;19;20324;-61
2023/12/11 10:33:15;;;;;;;;;;;;;;;10.50;83.76;99772.94;7372652;19;19918;-61
2023/12/11 10:35:40;;;;;;;;;;;;;;;10.69;82.39;99767.03;7368898;19;20376;-61
2023/12/11 10:38:05;;;;;;;;;;;;;;;10.93;83.22;99773.06;7374695;19;20449;-61
2023/12/11 10:40:41;;;;;;;;;;;;;;;11.10;83.35;99768.03;7369066;19;19915;-61
2023/12/11 10:43:06;;;;;;;;;;;;;;;11.38;82.89;99767.78;7361939;19;19918;-61
2023/12/11 10:45:40;;;;;;;;;;;;;;;11.58;82.26;99759.94;7396569;19;19950;-61
2023/12/11 10:48:06;;;;;;;;;;;;;;;11.76;81.96;99762.69;7401252;19;20381;-61
2023/12/11 10:50:32;;;;;;;;;;;;;;;11.95;81.63;99768.88;7395771;19;19954;-61
2023/12/11 10:53:01;;;;;;;;;;;;;;;12.10;81.36;99773.44;7403064;19;20404;-61
2023/12/11 10:55:26;;;;;;;;;;;;;;;12.24;81.42;99765.00;7397935;19;20420;-60
2023/12/11 10:57:52;;;;;;;;;;;;;;;12.37;80.47;99760.06;7400027;19;19927;-61
2023/12/11 11:00:20;;;;;;;;;;;;;;;12.53;80.78;99760.22;7400087;19;20542;-60
2023/12/11 11:02:46;;;;;;;;;;;;;;;12.68;80.70;99755.13;7404849;19;20006;-61
2023/12/11 11:05:12;;;;;;;;;;;;;;;12.84;80.19;99750.00;7386602;19;19930;-60
2023/12/11 11:07:43;;;;;;;;;;;;;;;13.00;79.74;99755.38;7399056;19;19960;-60
2023/12/11 11:10:13;;;;;;;;;;;;;;;13.15;79.50;99754.63;7398624;19;19919;-61
2023/12/11 11:12:38;;;;;;;;;;;;;;;13.33;79.62;99759.94;7399747;19;20665;-61
2023/12/11 11:15:05;;;;;;;;;;;;;;;13.49;79.45;99763.50;7391209;19;19922;-61
2023/12/11 11:17:49;;;;;;;;;;;;;;;13.63;78.57;99745.28;7369849;19;20526;-61
2023/12/11 11:20:15;;;;;;;;;;;;;;;13.83;78.67;99762.66;7396143;19;20366;-61
2023/12/11 11:22:41;;;;;;;;;;;;;;;14.00;78.54;99767.03;7399251;19;20009;-60
2023/12/11 11:25:25;;;;;;;;;;;;;;;14.19;78.43;99765.16;7395252;19;20117;-60
2023/12/11 11:27:50;;;;;;;;;;;;;;;14.37;77.91;99757.22;7398714;19;19939;-60
2023/12/11 11:30:35;;;;;;;;;;;;;;;14.52;77.75;99756.44;7401719;19;19990;-60
2023/12/11 11:33:00;;;;;;;;;;;;;;;14.70;77.55;99744.94;7394928;19;19927;-60
2023/12/11 11:35:45;;;;;;;;;;;;;;;14.88;77.19;99743.06;7395634;19;19933;-60
2023/12/11 11:38:10;;;;;;;;;;;;;;;15.09;76.43;99743.63;7394806;19;20714;-60
2023/12/11 11:40:36;;;;;;;;;;;;;;;15.22;76.53;99752.53;7399319;19;19930;-60
2023/12/11 11:43:01;;;;;;;;;;;;;;;15.36;76.26;99748.25;7403847;19;19922;-61
2023/12/11 11:45:26;;;;;;;;;;;;;;;15.49;76.32;99738.72;7402668;19;20736;-60
2023/12/11 11:47:51;;;;;;;;;;;;;;;15.66;76.15;99737.75;7405411;19;20858;-61
2023/12/11 11:50:18;;;;;;;;;;;;;;;15.82;75.81;99736.78;7404392;19;20429;-60
2023/12/11 11:52:46;;;;;;;;;;;;;;;16.00;75.18;99739.22;7404872;19;19915;-61
2023/12/11 11:55:11;;;;;;;;;;;;;;;16.13;74.82;99734.91;7389484;19;20579;-60
2023/12/11 11:57:36;;;;;;;;;;;;;;;16.24;74.54;99743.00;7357300;19;19990;-60
2023/12/11 12:00:02;;;;;;;;;;;;;;;16.34;73.98;99749.41;7350464;19;19927;-60
2023/12/11 12:02:29;;;;;;;;;;;;;;;16.43;73.85;99747.16;7365203;19;19918;-60
2023/12/11 12:04:55;;;;;;;;;;;;;;;16.50;73.89;99743.19;7368008;19;19931;-60
2023/12/11 12:07:22;;;;;;;;;;;;;;;16.57;73.74;99749.75;7363995;19;19927;-60
2023/12/11 12:09:59;;;;;;;;;;;;;;;16.69;73.62;99743.72;7368393;19;19915;-60
2023/12/11 12:12:24;;;;;;;;;;;;;;;16.77;73.79;99730.06;7364931;19;19921;-60
2023/12/11 12:14:59;;;;;;;;;;;;;;;16.88;73.50;99729.38;7363346;19;19950;-60
2023/12/11 12:17:24;;;;;;;;;;;;;;;16.95;73.43;99738.63;7358191;19;19923;-60
2023/12/11 12:19:49;;;;;;;;;;;;;;;17.06;72.70;99738.75;7368250;19;20839;-60
2023/12/11 12:22:17;;;;;;;;;;;;;;;17.10;73.14;99733.19;7362972;19;19978;-60
2023/12/11 12:24:48;;;;;;;;;;;;;;;17.16;72.94;99737.22;7365745;19;19927;-60
2023/12/11 12:27:14;;;;;;;;;;;;;;;17.25;72.99;99731.34;7362507;19;19919;-60
2023/12/11 12:29:40;;;;;;;;;;;;;;;17.30;73.39;99721.34;7367049;19;19926;-60
2023/12/11 12:32:06;;;;;;;;;;;;;;;17.40;73.13;99720.72;7366300;19;19914;-60
2023/12/11 12:34:33;;;;;;;;;;;;;;;17.50;73.69;99709.44;7367873;19;19926;-60
2023/12/11 12:36:59;;;;;;;;;;;;;;;17.68;74.03;99714.41;7368742;19;19927;-60
2023/12/11 12:39:25;;;;;;;;;;;;;;;17.82;74.22;99707.28;7364906;19;20753;-60
2023/12/11 12:41:51;;;;;;;;;;;;;;;18.02;74.02;99697.16;7370798;19;19927;-60
2023/12/11 12:44:18;;;;;;;;;;;;;;;18.22;74.02;99683.38;7369099;19;19915;-61
2023/12/11 12:46:43;;;;;;;;;;;;;;;18.39;73.92;99692.75;7368869;19;19930;-60